Terminal Aerodrome Forecast
Issued by NWS

Home | Current Version | Previous Version | Text Only | Print | Product List | Glossary On
Versions: 1 2 3 4 5 6 7 8 9 10 11 12
000
FTUS45 KABQ 050530
TAFSAF
TAF
KSAF 050530Z 0506/0606 16007KT P6SM VCSH BKN060
      TEMPO 0508/0512 5SM BR BKN030
     FM051600 23008KT P6SM SCT050
     FM052100 23011KT P6SM VCTS BKN090CB
     FM060100 31005KT P6SM SCT100=

USA.gov is the U.S. government's official web portal to all federal, state and local government web resources and services.